createdAt,value
2024-03-14T00:03:24.830Z,8.68
2024-03-14T00:05:57.734Z,10.52
2024-03-14T00:08:30.841Z,8.10
2024-03-14T00:11:09.150Z,12.95
2024-03-14T00:13:43.198Z,11.40
2024-03-14T00:16:25.781Z,7.18
2024-03-14T00:19:01.314Z,7.57
2024-03-14T00:21:34.146Z,9.27
2024-03-14T00:24:11.690Z,8.32
2024-03-14T00:26:46.030Z,12.80
2024-03-14T00:29:20.676Z,8.73
2024-03-14T00:32:01.655Z,8.13
2024-03-14T00:34:34.336Z,5.50
2024-03-14T00:37:08.574Z,8.05
2024-03-14T00:39:42.612Z,11.60
2024-03-14T00:42:17.500Z,6.75
2024-03-14T00:44:53.851Z,8.55
2024-03-14T00:47:30.293Z,6.60
2024-03-14T00:50:05.690Z,8.45
2024-03-14T00:52:40.593Z,5.10
2024-03-14T00:55:20.170Z,5.72
2024-03-14T00:57:54.952Z,8.10
2024-03-14T01:00:29.784Z,5.35
2024-03-14T01:03:02.544Z,6.60
2024-03-14T01:05:37.111Z,6.45
2024-03-14T01:08:09.746Z,6.28
2024-03-14T01:10:42.470Z,9.65
2024-03-14T01:13:15.108Z,5.13
2024-03-14T01:15:47.992Z,6.20
2024-03-14T01:18:23.130Z,8.65
2024-03-14T01:20:58.481Z,7.55
2024-03-14T01:23:32.010Z,6.45
2024-03-14T01:26:05.395Z,6.55
2024-03-14T01:28:39.525Z,4.97
2024-03-14T01:31:14.258Z,6.60
2024-03-14T01:33:47.733Z,5.75
2024-03-14T01:36:21.919Z,6.40
2024-03-14T01:38:54.709Z,4.15
2024-03-14T01:41:28.280Z,6.18
2024-03-14T01:44:01.456Z,4.72
2024-03-14T01:49:07.738Z,5.15
2024-03-14T01:51:41.121Z,5.10
2024-03-14T01:57:01.588Z,8.65
2024-03-14T01:59:57.687Z,6.80
2024-03-14T02:02:48.780Z,5.18
2024-03-14T02:05:55.535Z,6.03
2024-03-14T02:08:39.671Z,8.82
2024-03-14T02:11:26.109Z,4.28
2024-03-14T02:14:02.713Z,4.45
2024-03-14T02:16:37.009Z,4.55
2024-03-14T02:19:22.023Z,3.83
2024-03-14T02:22:08.495Z,8.00
2024-03-14T02:24:45.090Z,5.22
2024-03-14T02:27:25.520Z,3.97
2024-03-14T02:30:10.890Z,6.05
2024-03-14T02:32:58.496Z,3.97
2024-03-14T02:35:45.659Z,2.80
2024-03-14T02:38:30.890Z,4.67
2024-03-14T02:41:05.561Z,5.10
2024-03-14T02:43:44.070Z,5.43
2024-03-14T02:46:18.978Z,3.88
2024-03-14T02:48:58.434Z,5.30
2024-03-14T02:51:33.624Z,6.22
2024-03-14T02:56:52.115Z,8.02
2024-03-14T02:59:26.024Z,3.47
2024-03-14T03:02:03.180Z,5.00
2024-03-14T03:04:36.596Z,4.35
2024-03-14T03:07:11.458Z,6.03
2024-03-14T03:09:47.716Z,3.10
2024-03-14T03:12:21.399Z,3.92
2024-03-14T03:15:02.256Z,4.32
2024-03-14T03:17:41.540Z,4.07
2024-03-14T03:20:22.483Z,1.90
2024-03-14T03:23:19.569Z,3.42
2024-03-14T03:26:05.243Z,3.13
2024-03-14T03:28:59.021Z,2.13
2024-03-14T03:31:50.400Z,6.32
2024-03-14T03:34:27.923Z,3.42
2024-03-14T03:37:01.238Z,2.30
2024-03-14T03:39:36.620Z,4.35
2024-03-14T03:42:13.877Z,3.47
2024-03-14T03:44:52.506Z,4.10
2024-03-14T03:47:36.595Z,2.90
2024-03-14T03:50:18.743Z,1.90
2024-03-14T03:52:57.749Z,2.47
2024-03-14T03:55:42.330Z,7.13
2024-03-14T03:58:31.925Z,3.25
2024-03-14T04:01:27.721Z,2.90
2024-03-14T04:04:35.161Z,3.95
2024-03-14T04:07:21.819Z,3.15
2024-03-14T04:09:57.000Z,5.53
2024-03-14T04:12:35.365Z,3.75
2024-03-14T04:15:17.322Z,4.70
2024-03-14T04:17:57.353Z,6.18
2024-03-14T04:20:50.135Z,5.78
2024-03-14T04:23:31.408Z,4.18
2024-03-14T04:26:12.700Z,4.78
2024-03-14T04:28:52.971Z,5.60
2024-03-14T04:31:36.508Z,5.60
2024-03-14T04:34:28.836Z,5.55
2024-03-14T04:37:05.859Z,4.22
2024-03-14T04:39:57.836Z,4.05
2024-03-14T04:42:44.167Z,4.93
2024-03-14T04:45:19.213Z,2.88
2024-03-14T04:47:53.496Z,5.65
2024-03-14T04:50:34.652Z,3.63
2024-03-14T04:53:20.224Z,3.90
2024-03-14T04:56:04.645Z,2.75
2024-03-14T04:58:39.355Z,4.53
2024-03-14T05:01:13.406Z,5.10
2024-03-14T05:03:50.420Z,6.43
2024-03-14T05:06:46.236Z,3.47
2024-03-14T05:09:32.339Z,5.88
2024-03-14T05:12:38.309Z,3.47
2024-03-14T05:15:20.000Z,3.38
2024-03-14T05:18:08.052Z,5.35
2024-03-14T05:20:57.427Z,4.25
2024-03-14T05:23:39.580Z,5.20
2024-03-14T05:26:23.174Z,3.25
2024-03-14T05:29:01.662Z,2.85
2024-03-14T05:31:38.660Z,2.70
2024-03-14T05:34:32.822Z,2.67
2024-03-14T05:37:38.776Z,5.10
2024-03-14T05:40:25.583Z,5.10
2024-03-14T05:43:08.049Z,5.88
2024-03-14T05:45:53.794Z,9.13
2024-03-14T05:48:40.795Z,3.25
2024-03-14T05:51:21.822Z,4.30
2024-03-14T05:54:01.007Z,6.57
2024-03-14T05:56:44.279Z,6.00
2024-03-14T05:59:54.558Z,7.35
2024-03-14T06:02:36.573Z,6.68
2024-03-14T06:05:30.723Z,3.88
2024-03-14T06:08:17.178Z,4.55
2024-03-14T06:10:57.868Z,6.38
2024-03-14T06:13:36.549Z,7.43
2024-03-14T06:16:18.493Z,7.93
2024-03-14T06:18:56.344Z,4.20
2024-03-14T06:21:43.601Z,6.05
2024-03-14T06:24:34.443Z,9.05
2024-03-14T06:27:20.875Z,4.60
2024-03-14T06:30:26.048Z,7.57
2024-03-14T06:33:19.080Z,6.32
2024-03-14T06:35:57.218Z,5.68
2024-03-14T06:38:37.704Z,7.28
2024-03-14T06:41:11.563Z,4.10
2024-03-14T06:43:45.065Z,4.10
2024-03-14T06:46:18.645Z,8.25
2024-03-14T06:48:59.925Z,11.80
2024-03-14T06:51:35.604Z,6.57
2024-03-14T06:54:14.222Z,3.40
2024-03-14T06:57:06.221Z,3.45
2024-03-14T06:59:46.936Z,4.38
2024-03-14T07:02:38.691Z,4.93
2024-03-14T07:05:35.051Z,8.55
2024-03-14T07:08:09.770Z,9.98
2024-03-14T07:11:11.417Z,4.70
2024-03-14T07:14:06.266Z,3.00
2024-03-14T07:16:46.139Z,4.55
2024-03-14T07:19:24.272Z,3.50
2024-03-14T07:22:02.720Z,5.22
2024-03-14T07:24:41.429Z,2.70
2024-03-14T07:27:17.581Z,5.90
2024-03-14T07:29:55.194Z,3.33
2024-03-14T07:32:30.727Z,2.15
2024-03-14T07:35:07.491Z,1.85
2024-03-14T07:37:51.008Z,2.15
2024-03-14T07:40:35.698Z,3.13
2024-03-14T07:43:16.335Z,5.13
2024-03-14T07:46:01.288Z,2.92
2024-03-14T07:48:36.904Z,7.32
2024-03-14T07:51:11.878Z,5.38
2024-03-14T07:53:45.758Z,2.17
2024-03-14T07:56:32.149Z,4.55
2024-03-14T07:59:17.439Z,3.03
2024-03-14T08:02:04.881Z,4.10
2024-03-14T08:04:51.605Z,7.00
2024-03-14T08:08:01.388Z,6.63
2024-03-14T08:11:14.463Z,4.65
2024-03-14T08:14:07.606Z,1.80
2024-03-14T08:16:49.998Z,2.28
2024-03-14T08:19:32.611Z,3.10
2024-03-14T08:22:09.350Z,5.00
2024-03-14T08:24:54.409Z,2.30
2024-03-14T08:27:32.667Z,4.25
2024-03-14T08:30:11.006Z,6.45
2024-03-14T08:32:52.787Z,2.75
2024-03-14T08:35:29.071Z,2.60
2024-03-14T08:38:09.527Z,3.15
2024-03-14T08:43:20.148Z,3.40
2024-03-14T08:45:54.350Z,8.18
2024-03-14T08:48:30.222Z,4.50
2024-03-14T08:51:07.052Z,2.78
2024-03-14T08:53:59.679Z,3.00
2024-03-14T08:56:32.350Z,3.17
2024-03-14T08:59:05.695Z,5.32
2024-03-14T09:01:38.382Z,4.13
2024-03-14T09:04:12.302Z,4.53
2024-03-14T09:06:45.048Z,4.13
2024-03-14T09:09:38.676Z,4.53
2024-03-14T09:14:51.889Z,5.00
2024-03-14T09:17:24.797Z,1.55
2024-03-14T09:19:57.477Z,2.63
2024-03-14T09:22:30.156Z,2.03
2024-03-14T09:25:03.193Z,5.13
2024-03-14T09:30:10.384Z,1.55
2024-03-14T09:32:43.627Z,3.58
2024-03-14T09:37:50.581Z,2.92
2024-03-14T09:40:25.104Z,1.38
2024-03-14T09:43:01.193Z,4.25
2024-03-14T09:45:37.158Z,2.10
2024-03-14T09:48:12.991Z,2.50
2024-03-14T09:50:48.485Z,2.70
2024-03-14T09:53:25.480Z,6.40
2024-03-14T09:55:59.659Z,6.20
2024-03-14T09:58:32.498Z,2.33
2024-03-14T10:01:11.549Z,7.55
2024-03-14T10:03:44.393Z,3.33
2024-03-14T10:06:20.060Z,4.80
2024-03-14T10:08:53.810Z,2.88
2024-03-14T10:11:26.564Z,3.47
2024-03-14T10:14:23.491Z,2.95
2024-03-14T10:16:58.419Z,5.15
2024-03-14T10:19:32.214Z,6.20
2024-03-14T10:22:07.124Z,3.60
2024-03-14T10:24:40.607Z,6.47
2024-03-14T10:27:13.283Z,1.92
2024-03-14T10:29:46.954Z,1.85
2024-03-14T10:32:20.915Z,3.15
2024-03-14T10:34:54.473Z,3.95
2024-03-14T10:37:32.256Z,2.85
2024-03-14T10:40:10.931Z,2.63
2024-03-14T10:42:50.022Z,3.63
2024-03-14T10:45:23.456Z,3.13
2024-03-14T10:47:57.114Z,2.17
2024-03-14T10:50:34.654Z,1.50
2024-03-14T10:53:08.310Z,4.50
2024-03-14T10:55:48.990Z,5.35
2024-03-14T10:58:24.304Z,1.45
2024-03-14T11:00:58.106Z,1.55
2024-03-14T11:03:33.528Z,5.05
2024-03-14T11:06:20.584Z,4.40
2024-03-14T11:08:56.799Z,1.98
2024-03-14T11:11:33.234Z,2.85
2024-03-14T11:14:13.190Z,3.17
2024-03-14T11:16:51.219Z,4.18
2024-03-14T11:19:24.144Z,1.98
2024-03-14T11:21:57.575Z,1.60
2024-03-14T11:24:32.701Z,9.98
2024-03-14T11:27:06.722Z,9.43
2024-03-14T11:29:40.602Z,3.10
2024-03-14T11:32:25.417Z,2.38
2024-03-14T11:35:17.943Z,3.95
2024-03-14T11:37:54.733Z,1.50
2024-03-14T11:40:34.250Z,3.45
2024-03-14T11:43:08.721Z,2.13
2024-03-14T11:45:42.097Z,2.33
2024-03-14T11:48:20.772Z,2.63
2024-03-14T11:50:55.460Z,1.88
2024-03-14T11:53:31.434Z,0.98
2024-03-14T11:56:10.748Z,3.50
2024-03-14T11:58:45.962Z,2.60
2024-03-14T12:01:25.240Z,5.53
2024-03-14T12:04:04.584Z,3.97
2024-03-14T12:09:21.216Z,5.17
2024-03-14T12:11:55.161Z,1.92
2024-03-14T12:14:29.969Z,2.45
2024-03-14T12:17:03.217Z,4.20
2024-03-14T12:19:35.959Z,1.67
2024-03-14T12:22:08.641Z,1.75
2024-03-14T12:24:41.365Z,2.67
2024-03-14T12:27:14.197Z,3.75
2024-03-14T12:29:50.043Z,3.20
2024-03-14T12:32:23.867Z,3.55
2024-03-14T12:34:56.871Z,2.95
2024-03-14T12:37:30.729Z,4.45
2024-03-14T12:40:09.418Z,4.05
2024-03-14T12:42:42.526Z,2.90
2024-03-14T12:45:15.985Z,3.90
2024-03-14T12:47:49.814Z,4.32
2024-03-14T12:50:23.482Z,3.90
2024-03-14T12:53:07.122Z,4.68
2024-03-14T12:55:40.098Z,3.83
2024-03-14T12:58:22.418Z,4.30
2024-03-14T13:00:58.014Z,6.65
2024-03-14T13:03:30.979Z,4.88
2024-03-14T13:06:05.232Z,6.07
2024-03-14T13:08:38.022Z,2.83
2024-03-14T13:11:11.259Z,3.15
2024-03-14T13:13:44.483Z,9.07
2024-03-14T13:16:26.351Z,8.38
2024-03-14T13:18:59.067Z,5.25
2024-03-14T13:21:45.052Z,8.93
2024-03-14T13:24:18.218Z,3.10
2024-03-14T13:26:55.509Z,3.47
2024-03-14T13:29:28.742Z,3.33
2024-03-14T13:34:34.729Z,2.35
2024-03-14T13:39:40.063Z,3.53
2024-03-14T13:42:12.847Z,2.88
2024-03-14T13:44:47.563Z,2.50
2024-03-14T13:47:27.261Z,6.22
2024-03-14T13:50:02.387Z,3.75
2024-03-14T13:52:36.535Z,4.30
2024-03-14T13:55:25.898Z,4.85
2024-03-14T13:57:58.942Z,2.97
2024-03-14T14:00:47.758Z,4.55
2024-03-14T14:03:25.083Z,3.55
2024-03-14T14:05:58.316Z,5.07
2024-03-14T14:11:05.448Z,2.97
2024-03-14T14:13:38.163Z,3.72
2024-03-14T14:16:14.426Z,3.63
2024-03-14T14:18:47.873Z,2.58
2024-03-14T14:21:20.767Z,6.18
2024-03-14T14:23:53.600Z,3.20
2024-03-14T14:26:26.504Z,5.30
2024-03-14T14:28:59.196Z,5.35
2024-03-14T14:31:31.793Z,3.47
2024-03-14T14:34:05.226Z,4.20
2024-03-14T14:36:39.351Z,5.75
2024-03-14T14:39:12.146Z,8.30
2024-03-14T14:41:44.760Z,6.63
2024-03-14T14:44:17.409Z,7.60
2024-03-14T14:46:52.234Z,3.67
2024-03-14T14:49:24.888Z,4.20
2024-03-14T14:51:58.111Z,4.63
2024-03-14T14:54:30.854Z,8.38
2024-03-14T14:57:04.879Z,5.05
2024-03-14T14:59:40.929Z,10.18
2024-03-14T15:02:16.218Z,6.05
2024-03-14T15:04:50.116Z,3.63
2024-03-14T15:07:22.835Z,3.58
2024-03-14T15:09:55.731Z,3.58
2024-03-14T15:12:28.471Z,4.72
2024-03-14T15:15:01.599Z,6.85
2024-03-14T15:17:40.254Z,3.40
2024-03-14T15:20:15.796Z,3.47
2024-03-14T15:22:54.526Z,7.88
2024-03-14T15:25:27.720Z,5.80
2024-03-14T15:28:00.484Z,2.40
2024-03-14T15:30:34.699Z,3.95
2024-03-14T15:33:07.935Z,2.85
2024-03-14T15:35:40.744Z,6.60
2024-03-14T15:38:13.484Z,5.35
2024-03-14T15:40:46.141Z,4.38
2024-03-14T15:43:18.750Z,3.78
2024-03-14T15:45:53.013Z,2.97
2024-03-14T15:48:26.665Z,3.40
2024-03-14T15:51:00.528Z,2.70
2024-03-14T15:53:34.124Z,3.33
2024-03-14T15:56:07.391Z,5.28
2024-03-14T16:01:16.176Z,3.00
2024-03-14T16:03:50.136Z,5.95
2024-03-14T16:06:23.147Z,3.17
2024-03-14T16:08:58.274Z,5.78
2024-03-14T16:11:37.561Z,7.93
2024-03-14T16:14:10.248Z,8.13
2024-03-14T16:16:42.990Z,4.47
2024-03-14T16:19:20.253Z,10.85
2024-03-14T16:21:53.148Z,6.38
2024-03-14T16:24:27.832Z,6.57
2024-03-14T16:27:00.699Z,3.63
2024-03-14T16:29:33.401Z,4.13
2024-03-14T16:32:07.331Z,5.80
2024-03-14T16:34:39.934Z,5.22
2024-03-14T16:37:14.138Z,7.93
2024-03-14T16:39:47.986Z,6.60
2024-03-14T16:42:22.082Z,5.68
2024-03-14T16:44:57.000Z,4.50
2024-03-14T16:47:29.699Z,6.82
2024-03-14T16:50:02.805Z,6.75
2024-03-14T16:52:35.446Z,7.78
2024-03-14T16:55:08.122Z,3.42
2024-03-14T16:57:45.457Z,4.50
2024-03-14T17:00:23.625Z,3.80
2024-03-14T17:02:56.865Z,3.78
2024-03-14T17:05:30.502Z,7.30
2024-03-14T17:08:08.223Z,5.18
2024-03-14T17:10:41.421Z,3.45
2024-03-14T17:13:17.372Z,2.30
2024-03-14T17:15:52.211Z,6.95
2024-03-14T17:18:27.197Z,10.30
2024-03-14T17:21:02.406Z,5.35
2024-03-14T17:23:36.269Z,9.02
2024-03-14T17:26:08.909Z,4.78
2024-03-14T17:28:41.615Z,8.07
2024-03-14T17:31:15.154Z,3.92
2024-03-14T17:33:49.776Z,5.05
2024-03-14T17:36:24.236Z,4.35
2024-03-14T17:38:58.533Z,7.35
2024-03-14T17:41:38.785Z,7.80
2024-03-14T17:44:12.144Z,5.28
2024-03-14T17:46:46.082Z,8.48
2024-03-14T17:49:22.406Z,5.60
2024-03-14T17:51:55.725Z,6.28
2024-03-14T17:54:28.431Z,6.65
2024-03-14T17:57:02.235Z,8.77
2024-03-14T17:59:38.499Z,3.65
2024-03-14T18:02:14.138Z,4.90
2024-03-14T18:04:47.345Z,14.18
2024-03-14T18:07:20.975Z,5.68
2024-03-14T18:09:56.298Z,8.05
2024-03-14T18:12:32.578Z,10.43
2024-03-14T18:15:10.818Z,6.15
2024-03-14T18:17:44.858Z,14.23
2024-03-14T18:20:19.882Z,15.68
2024-03-14T18:23:11.203Z,34.78
2024-03-14T18:25:58.661Z,9.57
2024-03-14T18:28:33.659Z,8.15
2024-03-14T18:31:14.515Z,13.45
2024-03-14T18:33:48.453Z,10.15
2024-03-14T18:36:23.237Z,8.90
2024-03-14T18:39:02.310Z,7.95
2024-03-14T18:41:37.495Z,10.38
2024-03-14T18:44:27.153Z,11.68
2024-03-14T18:47:06.498Z,4.93
2024-03-14T18:49:46.462Z,9.70
2024-03-14T18:52:31.240Z,13.18
2024-03-14T18:55:13.279Z,7.88
2024-03-14T18:57:48.856Z,7.65
2024-03-14T19:00:32.696Z,10.10
2024-03-14T19:03:06.331Z,13.77
2024-03-14T19:05:41.727Z,7.78
2024-03-14T19:08:23.053Z,9.15
2024-03-14T19:11:03.892Z,7.05
2024-03-14T19:13:48.505Z,11.30
2024-03-14T19:16:26.393Z,9.75
2024-03-14T19:19:09.557Z,9.25
2024-03-14T19:21:45.315Z,7.53
2024-03-14T19:24:21.444Z,9.02
2024-03-14T19:26:56.529Z,7.43
2024-03-14T19:29:33.140Z,7.70
2024-03-14T19:32:10.510Z,5.15
2024-03-14T19:34:45.366Z,6.93
2024-03-14T19:37:20.574Z,12.63
2024-03-14T19:39:55.800Z,14.88
2024-03-14T19:42:30.190Z,8.65
2024-03-14T19:45:11.126Z,4.47
2024-03-14T19:47:47.475Z,6.55
2024-03-14T19:50:23.406Z,3.97
2024-03-14T19:52:57.513Z,7.03
2024-03-14T19:55:32.574Z,10.25
2024-03-14T19:58:06.203Z,5.47
2024-03-14T20:00:38.831Z,5.85
2024-03-14T20:03:13.832Z,4.22
2024-03-14T20:05:46.505Z,4.70
2024-03-14T20:08:21.271Z,7.00
2024-03-14T20:10:55.599Z,9.23
2024-03-14T20:13:28.323Z,5.95
2024-03-14T20:16:03.066Z,6.90
2024-03-14T20:18:38.096Z,4.65
2024-03-14T20:21:12.789Z,9.13
2024-03-14T20:23:47.759Z,6.07
2024-03-14T20:26:22.455Z,9.88
2024-03-14T20:28:57.900Z,4.57
2024-03-14T20:31:32.411Z,9.05
2024-03-14T20:34:05.435Z,5.68
2024-03-14T20:39:23.192Z,7.10
2024-03-14T20:41:55.962Z,6.30
2024-03-14T20:44:31.040Z,9.60
2024-03-14T20:47:04.343Z,6.28
2024-03-14T20:52:14.646Z,7.05
2024-03-14T20:55:00.449Z,8.65
2024-03-14T20:57:44.168Z,7.63
2024-03-14T21:00:25.561Z,6.45
2024-03-14T21:03:00.865Z,7.72
2024-03-14T21:05:36.249Z,7.03
2024-03-14T21:08:20.822Z,8.75
2024-03-14T21:10:59.052Z,9.93
2024-03-14T21:13:36.586Z,5.10
2024-03-14T21:16:15.561Z,8.75
2024-03-14T21:18:52.114Z,5.05
2024-03-14T21:21:28.921Z,8.95
2024-03-14T21:24:07.252Z,9.18
2024-03-14T21:26:47.695Z,8.23
2024-03-14T21:29:23.428Z,6.57
2024-03-14T21:31:57.360Z,12.00
2024-03-14T21:34:39.601Z,9.20
2024-03-14T21:37:13.290Z,9.35
2024-03-14T21:39:49.396Z,8.48
2024-03-14T21:42:30.524Z,15.18
2024-03-14T21:45:08.604Z,9.80
2024-03-14T21:47:47.457Z,10.90
2024-03-14T21:50:25.125Z,8.32
2024-03-14T21:53:03.537Z,8.02
2024-03-14T21:55:39.058Z,16.77
2024-03-14T21:58:14.736Z,7.65
2024-03-14T22:00:51.111Z,10.55
2024-03-14T22:03:28.062Z,10.95
2024-03-14T22:06:02.110Z,12.43
2024-03-14T22:08:38.096Z,12.00
2024-03-14T22:11:16.876Z,10.93
2024-03-14T22:13:53.525Z,10.77
2024-03-14T22:16:29.946Z,13.20
2024-03-14T22:19:07.710Z,12.02
2024-03-14T22:21:41.921Z,13.85
2024-03-14T22:24:19.688Z,17.75
2024-03-14T22:26:54.035Z,14.95
2024-03-14T22:29:29.431Z,15.98
2024-03-14T22:32:05.648Z,12.23
2024-03-14T22:34:39.347Z,17.27
2024-03-14T22:37:13.360Z,14.07
2024-03-14T22:39:47.617Z,11.82
2024-03-14T22:42:21.077Z,14.00
2024-03-14T22:44:57.147Z,12.57
2024-03-14T22:47:31.032Z,11.25
2024-03-14T22:50:07.041Z,11.10
2024-03-14T22:52:42.257Z,14.52
2024-03-14T22:55:15.909Z,9.40
2024-03-14T22:57:51.671Z,13.02
2024-03-14T23:00:49.352Z,13.38
2024-03-14T23:03:24.613Z,9.73
2024-03-14T23:05:58.837Z,11.93
2024-03-14T23:08:34.460Z,11.25
2024-03-14T23:11:13.503Z,10.00
2024-03-14T23:13:48.351Z,11.45
2024-03-14T23:16:22.401Z,12.63
2024-03-14T23:18:55.487Z,10.50
2024-03-14T23:21:29.660Z,8.75
2024-03-14T23:24:08.103Z,13.25
2024-03-14T23:26:44.010Z,14.10
2024-03-14T23:29:18.491Z,16.13
2024-03-14T23:31:53.462Z,14.48
2024-03-14T23:34:27.611Z,13.77
2024-03-14T23:37:02.148Z,15.77
2024-03-14T23:39:35.317Z,12.40
2024-03-14T23:42:08.615Z,12.55
2024-03-14T23:47:14.879Z,11.38
2024-03-14T23:49:47.747Z,11.65
2024-03-14T23:52:21.588Z,12.52
2024-03-14T23:54:55.215Z,14.35
2024-03-14T23:57:28.266Z,11.38
